Time;durP1;ratioP1;P1;durP2;ratioP2;P2;SDS_P1;SDS_P2;PMS_P1;PMS_P2;Temp;Humidity;BMP_temperature;BMP_pressure;BME280_temperature;BME280_humidity;BME280_pressure;Samples;Min_cycle;Max_cycle;Signal;HPM_P1;HPM_P2
2022/05/22 00:01:13;;;;;;;9.48;3.25;;;15.90;67.10;;;;;;5135983;27;20030;-67
2022/05/22 00:03:39;;;;;;;8.88;3.28;;;15.90;67.20;;;;;;5121499;27;20031;-67
2022/05/22 00:06:04;;;;;;;9.95;3.72;;;15.90;67.30;;;;;;5114306;28;20128;-67
2022/05/22 00:08:30;;;;;;;8.70;3.80;;;15.80;67.30;;;;;;5114280;27;20076;-67
2022/05/22 00:10:56;;;;;;;10.02;4.00;;;15.80;67.40;;;;;;5114128;28;20035;-67
2022/05/22 00:13:24;;;;;;;9.82;3.78;;;15.80;67.40;;;;;;5114699;28;20020;-67
2022/05/22 00:18:34;;;;;;;8.55;3.80;;;15.70;67.50;;;;;;5115539;28;20035;-67
2022/05/22 00:21:00;;;;;;;7.78;4.00;;;15.70;67.60;;;;;;5115011;28;20027;-67
2022/05/22 00:23:28;;;;;;;7.97;3.70;;;15.70;67.60;;;;;;5113546;28;20030;-67
2022/05/22 00:25:56;;;;;;;9.80;4.00;;;15.60;67.60;;;;;;5126545;27;20042;-67
2022/05/22 00:28:21;;;;;;;10.32;4.32;;;15.60;67.70;;;;;;5125488;27;20027;-67
2022/05/22 00:30:47;;;;;;;9.80;3.90;;;15.60;67.70;;;;;;5113922;28;20069;-67
2022/05/22 00:33:12;;;;;;;11.70;4.35;;;15.60;67.70;;;;;;5113860;28;20023;-67
2022/05/22 00:35:40;;;;;;;8.70;3.97;;;15.60;67.70;;;;;;5114995;28;20080;-67
2022/05/22 00:38:06;;;;;;;9.25;3.63;;;15.60;67.80;;;;;;5113873;27;20117;-67
2022/05/22 00:40:31;;;;;;;10.07;3.95;;;15.50;67.80;;;;;;5113920;28;20059;-67
2022/05/22 00:42:57;;;;;;;8.60;3.78;;;15.50;67.80;;;;;;5114378;28;20084;-67
2022/05/22 00:45:23;;;;;;;9.02;3.97;;;15.50;67.90;;;;;;5133615;28;20037;-67
2022/05/22 00:47:54;;;;;;;9.30;4.25;;;15.40;67.90;;;;;;5122714;27;20065;-67
2022/05/22 00:50:23;;;;;;;7.97;3.97;;;15.40;67.90;;;;;;5124334;27;20039;-67
2022/05/22 00:52:57;;;;;;;10.60;4.82;;;15.40;68.00;;;;;;5117931;28;20034;-67
2022/05/22 00:55:28;;;;;;;9.20;4.28;;;15.40;68.10;;;;;;5126292;27;20057;-67
2022/05/22 00:58:00;;;;;;;8.65;4.20;;;15.30;68.10;;;;;;5129332;27;20106;-67
2022/05/22 01:00:32;;;;;;;9.60;4.20;;;15.30;68.00;;;;;;5117953;28;20437;-67
2022/05/22 01:05:46;;;;;;;9.75;4.18;;;15.30;68.10;;;;;;5130344;27;20040;-67
2022/05/22 01:08:12;;;;;;;9.80;3.70;;;15.20;68.10;;;;;;5131080;27;20031;-67
2022/05/22 01:10:46;;;;;;;7.88;3.30;;;15.20;68.10;;;;;;5125106;27;20366;-67
2022/05/22 01:13:16;;;;;;;10.85;4.28;;;15.20;68.30;;;;;;5122358;27;20024;-67
2022/05/22 01:15:43;;;;;;;9.63;4.28;;;15.20;68.30;;;;;;5135480;27;20031;-67
2022/05/22 01:18:10;;;;;;;8.05;3.28;;;15.10;68.30;;;;;;5123875;27;20023;-67
2022/05/22 01:20:36;;;;;;;9.20;3.42;;;15.10;68.30;;;;;;5136123;27;20474;-67
2022/05/22 01:23:02;;;;;;;8.23;3.50;;;15.10;68.40;;;;;;5138113;27;20118;-67
2022/05/22 01:25:28;;;;;;;9.65;3.95;;;15.10;68.40;;;;;;5119496;27;20109;-67
2022/05/22 01:27:54;;;;;;;8.23;3.90;;;15.00;68.50;;;;;;5117881;27;20055;-67
2022/05/22 01:30:27;;;;;;;9.52;4.18;;;15.00;68.50;;;;;;5116850;27;20356;-67
2022/05/22 01:33:00;;;;;;;7.65;4.03;;;15.00;68.60;;;;;;5117358;27;20451;-67
2022/05/22 01:35:30;;;;;;;8.43;4.10;;;15.00;68.70;;;;;;5116394;27;20058;-67
2022/05/22 01:38:01;;;;;;;8.40;3.30;;;15.00;68.80;;;;;;5100470;28;20043;-67
2022/05/22 01:40:27;;;;;;;7.68;4.03;;;15.00;68.80;;;;;;5116884;27;20135;-67
2022/05/22 01:42:53;;;;;;;7.68;3.72;;;15.00;68.90;;;;;;5100155;28;20036;-67
2022/05/22 01:45:22;;;;;;;7.82;3.90;;;15.00;68.90;;;;;;5130736;27;20370;-67
2022/05/22 01:47:48;;;;;;;7.40;3.72;;;15.00;69.00;;;;;;5132625;27;20069;-67
2022/05/22 01:50:15;;;;;;;9.15;3.63;;;14.90;69.00;;;;;;5129325;27;20019;-67
2022/05/22 01:52:41;;;;;;;9.13;3.72;;;14.90;69.00;;;;;;5138903;27;20348;-67
2022/05/22 01:55:08;;;;;;;19.15;4.55;;;14.90;69.10;;;;;;5106535;28;20360;-67
2022/05/22 01:57:34;;;;;;;10.00;4.45;;;14.90;69.10;;;;;;5083009;28;20048;-67
2022/05/22 02:00:00;;;;;;;9.95;4.10;;;14.80;69.10;;;;;;5098612;28;20325;-67
2022/05/22 02:02:26;;;;;;;7.32;3.85;;;14.80;69.10;;;;;;5116194;28;20023;-67
2022/05/22 02:04:55;;;;;;;8.50;3.65;;;14.80;69.10;;;;;;5116825;27;20020;-67
2022/05/22 02:10:09;;;;;;;8.05;4.03;;;14.80;69.20;;;;;;5119729;27;20032;-67
2022/05/22 02:12:34;;;;;;;9.50;4.22;;;14.80;69.30;;;;;;5130280;27;20084;-67
2022/05/22 02:15:03;;;;;;;9.52;3.80;;;14.80;69.30;;;;;;5111638;28;20110;-67
2022/05/22 02:17:29;;;;;;;10.45;4.18;;;14.80;69.30;;;;;;5116101;28;20016;-67
2022/05/22 02:19:57;;;;;;;9.48;3.83;;;14.70;69.30;;;;;;5127026;27;20440;-67
2022/05/22 02:22:45;;;;;;;9.07;4.03;;;14.70;69.40;;;;;;5116624;28;20038;-67
2022/05/22 02:25:12;;;;;;;6.88;3.88;;;14.70;69.40;;;;;;5122061;27;20115;-67
2022/05/22 02:27:39;;;;;;;11.43;4.38;;;14.70;69.50;;;;;;5117328;27;20156;-67
2022/05/22 02:30:05;;;;;;;10.27;4.15;;;14.70;69.50;;;;;;5099007;28;20036;-67
2022/05/22 02:32:31;;;;;;;10.95;3.53;;;14.60;69.50;;;;;;5117429;28;20023;-67
2022/05/22 02:34:57;;;;;;;8.50;4.10;;;14.60;69.50;;;;;;5115043;27;20035;-67
2022/05/22 02:37:22;;;;;;;10.40;4.53;;;14.60;69.60;;;;;;5117625;27;20447;-67
2022/05/22 02:39:49;;;;;;;8.05;3.58;;;14.60;69.60;;;;;;5115610;27;20030;-67
2022/05/22 02:42:39;;;;;;;9.98;4.32;;;14.60;69.60;;;;;;5102638;28;20040;-67
2022/05/22 02:45:10;;;;;;;8.50;4.30;;;14.50;69.70;;;;;;5129725;27;20359;-67
2022/05/22 02:47:36;;;;;;;8.85;4.82;;;14.50;69.70;;;;;;5135364;27;20027;-67
2022/05/22 02:50:03;;;;;;;7.72;3.75;;;14.50;70.40;;;;;;5116935;27;20326;-67
2022/05/22 02:52:29;;;;;;;8.98;4.45;;;14.50;69.80;;;;;;5135661;27;20496;-67
2022/05/22 02:54:56;;;;;;;8.60;4.28;;;14.40;69.70;;;;;;5124487;27;20028;-67
2022/05/22 02:57:22;;;;;;;8.35;3.85;;;14.50;69.80;;;;;;5114660;27;20563;-67
2022/05/22 02:59:54;;;;;;;9.15;4.03;;;14.50;69.90;;;;;;5115119;27;20031;-67
2022/05/22 03:02:31;;;;;;;10.00;4.55;;;14.40;69.90;;;;;;5120823;27;20034;-67
2022/05/22 03:04:57;;;;;;;8.95;3.95;;;14.40;69.90;;;;;;5134188;27;20038;-67
2022/05/22 03:07:27;;;;;;;8.50;4.43;;;14.40;70.50;;;;;;5115731;27;20038;-67
2022/05/22 03:09:56;;;;;;;8.98;4.30;;;14.40;69.90;;;;;;5098491;28;20028;-67
2022/05/22 03:12:23;;;;;;;8.48;4.45;;;14.40;69.90;;;;;;5118735;27;20096;-67
2022/05/22 03:14:55;;;;;;;9.65;3.95;;;14.40;70.00;;;;;;5135029;27;20027;-67
2022/05/22 03:17:22;;;;;;;9.32;4.15;;;14.30;70.00;;;;;;5133224;27;20023;-67
2022/05/22 03:19:53;;;;;;;9.18;4.25;;;14.30;70.00;;;;;;5135781;27;20020;-67
2022/05/22 03:22:19;;;;;;;11.27;4.40;;;14.30;70.10;;;;;;5115409;27;20125;-67
2022/05/22 03:24:44;;;;;;;11.57;4.78;;;14.30;70.10;;;;;;5098226;28;20452;-67
2022/05/22 03:27:12;;;;;;;11.80;4.30;;;14.30;70.10;;;;;;5099850;28;20023;-67
2022/05/22 03:29:40;;;;;;;8.10;4.25;;;14.30;70.10;;;;;;5098206;28;20042;-67
2022/05/22 03:32:07;;;;;;;9.52;4.80;;;14.30;70.10;;;;;;5114740;28;20031;-67
2022/05/22 03:34:34;;;;;;;8.18;4.43;;;14.30;70.10;;;;;;5098064;28;20038;-67
2022/05/22 03:37:01;;;;;;;9.45;4.85;;;14.30;70.20;;;;;;5114307;27;20020;-67
2022/05/22 03:39:27;;;;;;;8.57;4.68;;;14.20;70.20;;;;;;5122852;27;20038;-67
2022/05/22 03:41:54;;;;;;;11.30;4.63;;;14.20;70.20;;;;;;5119809;27;20028;-67
2022/05/22 03:44:22;;;;;;;8.90;4.30;;;14.20;70.20;;;;;;5112860;27;20075;-67
2022/05/22 03:46:48;;;;;;;10.27;4.65;;;14.20;70.30;;;;;;5119621;27;20131;-67
2022/05/22 03:49:16;;;;;;;11.82;4.70;;;14.20;70.30;;;;;;5114590;28;20039;-67
2022/05/22 03:51:43;;;;;;;9.05;4.55;;;14.20;70.40;;;;;;5114442;27;20415;-67
2022/05/22 03:54:13;;;;;;;9.75;4.18;;;14.20;70.40;;;;;;5121314;27;20407;-67
2022/05/22 03:56:42;;;;;;;8.07;4.60;;;14.20;70.40;;;;;;5124108;27;20025;-67
2022/05/22 03:59:17;;;;;;;8.95;4.22;;;14.20;70.40;;;;;;5126544;27;21478;-67
2022/05/22 04:01:43;;;;;;;10.55;4.38;;;14.20;70.40;;;;;;5127655;27;20027;-67
2022/05/22 04:04:08;;;;;;;9.98;4.88;;;14.10;70.30;;;;;;5125935;27;20313;-67
2022/05/22 04:06:34;;;;;;;9.65;4.53;;;14.10;70.40;;;;;;5127461;27;20023;-67
2022/05/22 04:09:00;;;;;;;9.93;4.22;;;14.10;70.40;;;;;;5125342;27;20046;-67
2022/05/22 04:11:45;;;;;;;9.60;4.35;;;14.10;70.50;;;;;;5127131;27;20379;-67
2022/05/22 04:14:17;;;;;;;9.77;4.57;;;14.10;70.50;;;;;;5134170;27;20048;-67
2022/05/22 04:16:48;;;;;;;11.75;5.10;;;14.10;70.60;;;;;;5101974;27;20024;-67
2022/05/22 04:19:15;;;;;;;10.00;4.40;;;14.10;70.60;;;;;;5114202;28;20029;-67
2022/05/22 04:21:41;;;;;;;9.70;4.25;;;14.10;70.60;;;;;;5119487;27;20030;-67
2022/05/22 04:26:54;;;;;;;6.82;3.97;;;14.10;70.70;;;;;;5118212;27;20031;-67
2022/05/22 04:29:22;;;;;;;9.52;4.00;;;14.10;70.70;;;;;;5113886;28;20357;-67
2022/05/22 04:31:48;;;;;;;9.30;4.25;;;14.10;70.70;;;;;;5117137;27;20028;-67
2022/05/22 04:34:19;;;;;;;8.90;4.28;;;14.10;70.70;;;;;;5134907;27;20109;-67
2022/05/22 04:36:44;;;;;;;7.40;4.25;;;14.20;70.60;;;;;;5131085;27;20133;-67
2022/05/22 04:39:27;;;;;;;7.30;3.75;;;14.20;70.60;;;;;;5099043;28;20051;-67
2022/05/22 04:41:59;;;;;;;8.15;3.92;;;14.20;70.60;;;;;;5117297;27;20355;-67
2022/05/22 04:44:25;;;;;;;9.88;4.43;;;14.30;70.60;;;;;;5123784;27;20448;-68
2022/05/22 04:47:02;;;;;;;8.77;4.18;;;14.30;70.60;;;;;;5102566;28;20019;-68
2022/05/22 04:49:27;;;;;;;8.63;4.07;;;14.30;70.60;;;;;;5108319;28;20024;-68
2022/05/22 04:51:57;;;;;;;8.10;3.90;;;14.30;70.50;;;;;;5111611;28;20027;-68
2022/05/22 04:54:23;;;;;;;8.73;4.38;;;14.40;70.70;;;;;;5134905;28;20020;-66
2022/05/22 04:57:01;;;;;;;9.43;4.20;;;14.40;70.60;;;;;;5121048;27;20034;-66
2022/05/22 04:59:27;;;;;;;9.20;4.47;;;14.50;70.50;;;;;;5115086;28;20024;-66
2022/05/22 05:01:52;;;;;;;12.18;4.35;;;14.50;70.50;;;;;;5113887;28;20050;-66
2022/05/22 05:04:26;;;;;;;11.98;4.22;;;14.60;70.40;;;;;;5120827;27;20077;-66
2022/05/22 05:07:07;;;;;;;10.25;4.80;;;14.60;70.30;;;;;;5098334;28;20051;-66
2022/05/22 05:09:55;;;;;;;9.90;4.40;;;14.70;70.20;;;;;;5113930;28;20035;-66
2022/05/22 05:12:38;;;;;;;11.82;4.80;;;14.70;70.10;;;;;;5113567;28;20118;-66
2022/05/22 05:15:05;;;;;;;9.02;4.70;;;14.80;69.90;;;;;;5114357;28;20050;-66
2022/05/22 05:17:31;;;;;;;11.60;4.60;;;14.90;69.70;;;;;;5113507;28;20142;-66
2022/05/22 05:19:57;;;;;;;8.45;4.70;;;15.10;69.60;;;;;;5113487;28;20055;-66
2022/05/22 05:22:23;;;;;;;11.18;4.13;;;15.30;69.40;;;;;;5113857;28;20032;-66
2022/05/22 05:25:00;;;;;;;8.13;4.22;;;16.00;67.80;;;;;;5113495;28;20497;-66
2022/05/22 05:27:29;;;;;;;10.95;4.30;;;16.90;65.20;;;;;;5117170;28;20023;-66
2022/05/22 05:30:07;;;;;;;11.02;4.60;;;17.20;64.00;;;;;;5134097;28;20034;-66
2022/05/22 05:32:40;;;;;;;8.40;4.25;;;17.10;64.20;;;;;;5126254;28;20028;-66
2022/05/22 05:35:11;;;;;;;11.45;4.28;;;16.90;64.60;;;;;;5117227;28;20103;-66
2022/05/22 05:37:38;;;;;;;12.52;4.75;;;16.80;65.20;;;;;;5117531;27;20047;-65
2022/05/22 05:40:10;;;;;;;9.95;4.50;;;16.70;65.40;;;;;;5132061;27;20023;-65
2022/05/22 05:42:41;;;;;;;;;;;16.70;65.70;;;;;;5127975;27;20028;-65
2022/05/22 05:45:09;;;;;;;10.20;4.18;;;16.80;65.80;;;;;;5133439;27;19915;-65
2022/05/22 05:47:47;;;;;;;10.80;3.78;;;16.80;65.80;;;;;;5109828;27;20079;-65
2022/05/22 05:50:22;;;;;;;10.77;4.70;;;16.90;65.80;;;;;;5125680;27;20336;-65
2022/05/22 05:53:03;;;;;;;7.88;4.22;;;17.00;65.70;;;;;;5119131;27;20024;-65
2022/05/22 05:55:55;;;;;;;7.22;3.60;;;17.10;65.90;;;;;;5109399;27;20076;-65
2022/05/22 05:58:34;;;;;;;9.45;4.18;;;17.20;65.50;;;;;;5126838;27;20030;-65
2022/05/22 06:01:11;;;;;;;8.95;4.40;;;17.30;65.10;;;;;;5113578;28;20083;-65
2022/05/22 06:03:37;;;;;;;7.38;3.83;;;17.50;64.90;;;;;;5124438;27;20479;-65
2022/05/22 06:06:07;;;;;;;7.65;3.53;;;17.60;64.70;;;;;;5132952;27;20034;-65
2022/05/22 06:08:34;;;;;;;;;;;17.70;64.30;;;;;;5127606;27;20394;-65
2022/05/22 06:11:22;;;;;;;8.68;3.00;;;17.80;64.20;;;;;;5105316;28;19912;-65
2022/05/22 06:13:48;;;;;;;7.65;3.00;;;17.90;63.90;;;;;;5118112;27;20466;-65
2022/05/22 06:16:14;;;;;;;10.07;3.53;;;18.00;63.50;;;;;;5127929;27;20464;-65
2022/05/22 06:18:48;;;;;;;10.57;3.10;;;18.10;63.10;;;;;;5124634;27;20031;-65
2022/05/22 06:21:17;;;;;;;7.88;2.97;;;18.20;62.60;;;;;;5134898;27;20408;-65
2022/05/22 06:23:45;;;;;;;6.57;2.60;;;18.40;63.00;;;;;;5110742;28;20094;-65
2022/05/22 06:26:13;;;;;;;7.25;2.55;;;18.60;62.00;;;;;;5117321;27;20072;-65
2022/05/22 06:29:04;;;;;;;6.65;2.42;;;18.80;61.40;;;;;;5116833;27;20440;-64
2022/05/22 06:31:50;;;;;;;6.95;2.53;;;19.00;60.80;;;;;;5098773;27;20465;-65
2022/05/22 06:34:36;;;;;;;8.40;2.60;;;19.20;60.40;;;;;;5116845;27;20586;-65
2022/05/22 06:37:21;;;;;;;5.43;2.58;;;19.40;59.80;;;;;;5117270;27;20131;-65
2022/05/22 06:40:13;;;;;;;6.45;2.58;;;19.50;59.50;;;;;;5117222;27;20044;-65
2022/05/22 06:42:59;;;;;;;7.90;2.67;;;19.70;59.10;;;;;;5105048;28;20380;-66
2022/05/22 06:45:30;;;;;;;6.68;2.20;;;19.80;58.70;;;;;;5131501;27;20044;-65
2022/05/22 06:48:19;;;;;;;7.35;2.38;;;19.90;58.30;;;;;;5093266;28;20075;-66
2022/05/22 06:50:50;;;;;;;9.75;2.78;;;20.10;57.90;;;;;;5094908;28;20044;-66
2022/05/22 06:53:38;;;;;;;7.15;2.42;;;20.20;57.50;;;;;;5075071;28;20036;-66
2022/05/22 06:56:22;;;;;;;9.18;2.40;;;20.30;57.30;;;;;;5095025;28;20093;-66
2022/05/22 06:59:05;;;;;;;8.48;2.63;;;20.40;56.90;;;;;;5093576;28;20056;-66
2022/05/22 07:01:50;;;;;;;8.52;2.90;;;20.60;56.70;;;;;;5094835;28;20036;-65
2022/05/22 07:04:34;;;;;;;10.50;2.70;;;20.70;56.40;;;;;;5094749;28;20055;-66
2022/05/22 07:07:18;;;;;;;5.82;2.20;;;20.90;56.00;;;;;;5095179;28;20047;-66
2022/05/22 07:10:18;;;;;;;6.80;2.33;;;21.10;55.70;;;;;;5075745;28;20027;-66
2022/05/22 07:12:59;;;;;;;10.65;2.65;;;21.20;55.40;;;;;;5093630;28;20177;-66
2022/05/22 07:16:01;;;;;;;7.10;2.53;;;21.30;55.00;;;;;;5093303;28;20040;-66
2022/05/22 07:18:34;;;;;;;4.93;2.08;;;21.40;54.40;;;;;;5077410;28;20097;-66
2022/05/22 07:21:16;;;;;;;9.73;2.80;;;21.60;54.40;;;;;;5058042;28;20035;-65
2022/05/22 07:23:54;;;;;;;7.68;2.72;;;21.70;54.10;;;;;;5070591;28;20028;-65
2022/05/22 07:26:52;;;;;;;7.32;2.63;;;21.90;53.70;;;;;;5033198;28;20041;-65
2022/05/22 07:29:41;;;;;;;6.20;2.17;;;22.00;53.50;;;;;;5015074;28;20419;-66
2022/05/22 07:32:31;;;;;;;7.10;2.40;;;22.20;53.20;;;;;;5003858;28;20099;-66
2022/05/22 07:35:33;;;;;;;5.97;1.70;;;22.30;53.00;;;;;;4997634;28;20037;-76
2022/05/22 07:38:17;;;;;;;6.65;2.10;;;22.40;52.40;;;;;;4983754;28;20085;-68
2022/05/22 07:41:02;;;;;;;8.57;3.03;;;22.50;51.80;;;;;;4998035;28;20033;-66
2022/05/22 07:43:45;;;;;;;7.35;2.60;;;22.60;51.50;;;;;;5006773;28;20073;-66
2022/05/22 07:46:26;;;;;;;;;;;22.60;51.50;;;;;;4992561;28;20526;-66
2022/05/22 07:48:59;;;;;;;8.68;3.03;;;22.50;51.80;;;;;;4982081;28;20275;-68
2022/05/22 07:51:43;;;;;;;6.25;2.45;;;22.50;51.90;;;;;;4994285;28;20038;-67
2022/05/22 07:54:34;;;;;;;8.55;3.00;;;22.70;51.80;;;;;;4991228;28;20380;-67
2022/05/22 07:57:22;;;;;;;5.20;2.33;;;22.80;51.20;;;;;;4991836;28;20040;-67
2022/05/22 08:00:20;;;;;;;9.57;2.60;;;22.90;51.00;;;;;;4993494;28;20376;-67
2022/05/22 08:02:50;;;;;;;6.57;1.95;;;23.00;50.40;;;;;;5021212;28;20051;-67
2022/05/22 08:05:19;;;;;;;7.90;2.00;;;23.00;50.10;;;;;;5016823;28;20056;-67
2022/05/22 08:07:51;;;;;;;5.28;1.75;;;23.10;49.60;;;;;;5040497;28;20051;-67
2022/05/22 08:10:37;;;;;;;7.05;1.65;;;23.20;49.40;;;;;;5129432;27;20100;-67
2022/05/22 08:13:10;;;;;;;8.23;2.35;;;23.30;49.10;;;;;;5116788;27;20459;-67
2022/05/22 08:15:38;;;;;;;6.47;2.40;;;23.40;49.40;;;;;;5112876;28;20507;-67
2022/05/22 08:18:17;;;;;;;5.43;2.33;;;23.50;48.50;;;;;;5120107;27;20131;-67
2022/05/22 08:20:44;;;;;;;6.15;2.45;;;23.70;48.40;;;;;;5112490;28;20055;-67
2022/05/22 08:23:18;;;;;;;6.53;1.85;;;23.80;48.10;;;;;;5096866;27;20061;-67
2022/05/22 08:26:06;;;;;;;6.35;1.70;;;23.90;47.90;;;;;;5113852;27;20043;-68
2022/05/22 08:28:35;;;;;;;5.95;1.83;;;24.00;47.50;;;;;;5117436;27;20456;-66
2022/05/22 08:31:03;;;;;;;6.85;1.83;;;24.00;47.00;;;;;;5113007;28;20090;-66
2022/05/22 08:33:30;;;;;;;7.03;1.92;;;23.90;46.50;;;;;;5113483;28;20020;-66
2022/05/22 08:35:55;;;;;;;8.95;2.20;;;23.90;46.10;;;;;;5113673;28;20027;-66
2022/05/22 08:38:21;;;;;;;8.85;2.33;;;23.90;46.00;;;;;;5095218;28;20044;-67
2022/05/22 08:41:14;;;;;;;4.88;1.83;;;23.90;46.00;;;;;;5113830;27;20359;-67
2022/05/22 08:44:15;;;;;;;6.53;2.13;;;24.00;46.00;;;;;;5119380;27;20084;-67
2022/05/22 08:47:06;;;;;;;4.30;1.30;;;24.20;45.60;;;;;;5112728;28;20035;-67
2022/05/22 08:49:45;;;;;;;5.87;1.90;;;24.20;45.00;;;;;;5114092;28;20047;-66
2022/05/22 08:52:29;;;;;;;6.78;2.05;;;24.30;45.20;;;;;;5113862;28;20289;-66
2022/05/22 08:55:24;;;;;;;6.53;1.80;;;24.40;45.10;;;;;;5095633;28;20027;-67
2022/05/22 09:00:47;;;;;;;7.68;1.90;;;24.70;44.60;;;;;;5113858;28;20028;-67
2022/05/22 09:03:28;;;;;;;3.83;1.65;;;24.90;44.60;;;;;;5112810;28;20028;-67
2022/05/22 09:05:59;;;;;;;5.60;1.70;;;25.00;44.20;;;;;;5115564;28;20131;-67
2022/05/22 09:08:45;;;;;;;5.20;1.75;;;25.00;44.00;;;;;;5117367;27;20389;-66
2022/05/22 09:11:24;;;;;;;6.90;1.73;;;25.00;43.80;;;;;;5119680;27;20024;-67
2022/05/22 09:14:11;;;;;;;6.30;2.00;;;25.10;43.60;;;;;;5129010;27;20065;-67
2022/05/22 09:16:44;;;;;;;3.80;1.40;;;25.30;43.20;;;;;;5133026;27;20363;-66
2022/05/22 09:20:09;;;;;;;6.07;1.58;;;25.30;43.00;;;;;;5132651;27;20026;-67
2022/05/22 09:22:51;;;;;;;4.82;1.35;;;25.40;42.50;;;;;;5059416;28;20082;-67
2022/05/22 09:25:22;;;;;;;6.60;1.63;;;25.50;42.50;;;;;;5076454;28;20040;-67
2022/05/22 09:27:54;;;;;;;5.20;1.45;;;25.50;42.00;;;;;;5078118;28;20115;-67
2022/05/22 09:30:36;;;;;;;4.72;1.38;;;25.50;42.60;;;;;;5067653;28;20033;-67
2022/05/22 09:33:27;;;;;;;5.05;1.33;;;25.50;41.90;;;;;;5087606;28;20081;-66
2022/05/22 09:35:54;;;;;;;5.03;1.30;;;25.50;42.20;;;;;;5096988;28;20032;-67
2022/05/22 09:38:54;;;;;;;4.35;1.58;;;25.30;42.50;;;;;;5095631;28;20125;-66
2022/05/22 09:41:34;;;;;;;5.82;1.55;;;25.30;42.30;;;;;;5096888;28;20109;-66
2022/05/22 09:44:26;;;;;;;4.35;1.73;;;25.40;42.10;;;;;;5093090;28;20024;-66
2022/05/22 09:47:12;;;;;;;5.00;1.70;;;25.50;41.90;;;;;;5080055;28;20044;-67
2022/05/22 09:50:33;;;;;;;5.20;1.55;;;25.60;41.90;;;;;;5093788;28;20460;-67
2022/05/22 09:53:07;;;;;;;5.57;1.40;;;25.70;41.40;;;;;;5074968;28;20047;-67
2022/05/22 09:55:45;;;;;;;4.65;1.30;;;25.80;41.50;;;;;;5119719;27;20023;-67
2022/05/22 09:58:14;;;;;;;3.03;1.20;;;25.80;41.40;;;;;;5103811;27;20392;-67
2022/05/22 10:00:56;;;;;;;5.85;1.55;;;26.00;41.50;;;;;;5113375;27;20019;-67
2022/05/22 10:03:54;;;;;;;5.68;1.40;;;26.10;41.10;;;;;;5131517;27;20049;-67
2022/05/22 10:06:59;;;;;;;3.35;1.27;;;26.20;40.70;;;;;;5137068;27;20128;-67
2022/05/22 10:09:38;;;;;;;6.72;1.98;;;26.20;40.50;;;;;;5093419;28;20536;-67
2022/05/22 10:12:10;;;;;;;5.63;1.58;;;26.20;40.70;;;;;;5092389;28;20074;-67
2022/05/22 10:15:00;;;;;;;3.45;1.75;;;26.00;40.50;;;;;;5077692;28;20403;-67
2022/05/22 10:18:04;;;;;;;4.82;1.70;;;25.90;40.70;;;;;;5077554;28;20030;-67
2022/05/22 10:21:06;;;;;;;5.82;2.08;;;25.90;40.70;;;;;;5093288;28;20032;-67
2022/05/22 10:23:58;;;;;;;6.38;1.30;;;25.90;40.90;;;;;;5095502;28;20047;-67
2022/05/22 10:27:09;;;;;;;6.20;1.83;;;25.80;41.10;;;;;;5061099;28;20465;-67
2022/05/22 10:29:48;;;;;;;5.13;1.80;;;26.00;41.30;;;;;;5081937;28;20048;-67
2022/05/22 10:32:25;;;;;;;5.63;1.75;;;26.10;40.80;;;;;;5075881;28;20036;-67
2022/05/22 10:35:18;;;;;;;4.95;1.58;;;26.30;40.90;;;;;;5070479;28;20031;-67
2022/05/22 10:37:50;;;;;;;;;;;26.30;40.50;;;;;;5081674;28;20184;-67
2022/05/22 10:40:20;;;;;;;2.47;1.08;;;26.50;40.90;;;;;;5107156;28;19911;-67
2022/05/22 10:42:50;;;;;;;5.35;1.65;;;26.30;40.80;;;;;;5093257;28;20137;-67
2022/05/22 10:45:34;;;;;;;6.18;1.65;;;26.40;40.60;;;;;;5076062;28;20437;-67
2022/05/22 10:48:22;;;;;;;7.03;1.98;;;26.40;40.40;;;;;;5133390;27;20027;-67
2022/05/22 10:51:14;;;;;;;6.20;1.77;;;26.50;41.10;;;;;;5136592;27;20034;-68
2022/05/22 10:53:45;;;;;;;4.57;1.40;;;26.60;40.50;;;;;;5135198;27;20122;-67
2022/05/22 10:56:14;;;;;;;4.35;1.60;;;26.60;40.40;;;;;;5126187;27;20088;-67
2022/05/22 10:58:53;;;;;;;3.95;1.50;;;26.60;40.10;;;;;;5134294;27;20035;-67
2022/05/22 11:01:36;;;;;;;4.32;1.48;;;26.60;39.80;;;;;;5123883;27;20043;-67
2022/05/22 11:04:06;;;;;;;5.60;1.67;;;26.50;39.90;;;;;;5120072;27;20031;-66
2022/05/22 11:06:34;;;;;;;6.18;1.60;;;26.50;39.90;;;;;;5120035;27;20355;-67
2022/05/22 11:09:00;;;;;;;6.38;1.52;;;26.60;40.10;;;;;;5114767;27;20159;-67
2022/05/22 11:11:31;;;;;;;6.93;1.55;;;26.50;39.80;;;;;;5117886;27;20360;-64
2022/05/22 11:14:13;;;;;;;5.15;1.73;;;26.40;39.60;;;;;;5104507;27;20428;-65
2022/05/22 11:16:39;;;;;;;6.72;1.90;;;26.30;39.50;;;;;;5109548;27;20422;-65
2022/05/22 11:19:15;;;;;;;5.88;1.45;;;26.20;40.00;;;;;;5119193;27;20031;-65
2022/05/22 11:22:19;;;;;;;5.57;1.73;;;26.10;40.00;;;;;;5128114;27;20043;-65
2022/05/22 11:25:22;;;;;;;4.57;1.45;;;26.10;40.20;;;;;;5119661;27;20162;-65
2022/05/22 11:28:18;;;;;;;4.28;1.42;;;26.10;40.00;;;;;;5100978;28;20044;-65
2022/05/22 11:31:08;;;;;;;5.45;1.85;;;26.00;40.00;;;;;;5116240;27;20114;-66
2022/05/22 11:34:05;;;;;;;4.03;1.40;;;26.10;40.00;;;;;;5116409;27;20082;-66
2022/05/22 11:36:57;;;;;;;5.45;2.00;;;26.00;39.80;;;;;;5125395;27;20031;-66
2022/05/22 11:39:38;;;;;;;;;;;25.90;39.80;;;;;;5139201;27;20058;-66
2022/05/22 11:42:38;;;;;;;4.97;1.65;;;25.70;40.30;;;;;;5112584;27;20426;-64
2022/05/22 11:45:24;;;;;;;6.22;1.90;;;25.70;40.60;;;;;;5128210;27;20027;-65
2022/05/22 11:48:05;;;;;;;5.85;1.85;;;25.70;40.50;;;;;;5123260;27;20027;-65
2022/05/22 11:50:38;;;;;;;7.22;2.08;;;25.80;40.50;;;;;;5129098;27;20416;-65
2022/05/22 11:53:37;;;;;;;5.88;1.98;;;25.80;40.40;;;;;;5133651;27;20344;-65
2022/05/22 11:56:25;;;;;;;5.00;1.80;;;25.90;40.00;;;;;;5124922;27;20023;-66
2022/05/22 11:59:08;;;;;;;6.20;2.33;;;25.90;40.20;;;;;;5116984;27;20461;-65
2022/05/22 12:01:39;;;;;;;6.85;2.25;;;25.70;39.70;;;;;;5120291;27;20027;-66
2022/05/22 12:04:13;;;;;;;5.75;2.55;;;25.60;39.90;;;;;;5116777;27;20372;-66
2022/05/22 12:07:13;;;;;;;7.10;2.13;;;25.50;39.40;;;;;;5125201;27;20035;-66
2022/05/22 12:09:44;;;;;;;5.65;2.15;;;25.50;39.30;;;;;;5118443;27;20031;-66
2022/05/22 12:12:26;;;;;;;5.75;2.25;;;25.30;39.50;;;;;;5117245;27;20036;-66
2022/05/22 12:15:22;;;;;;;7.35;2.70;;;25.40;39.80;;;;;;5117426;27;20012;-66
2022/05/22 12:17:59;;;;;;;6.40;2.75;;;25.30;39.50;;;;;;5083397;27;20033;-67
2022/05/22 12:20:27;;;;;;;7.82;2.97;;;25.30;39.60;;;;;;5124980;27;20038;-66
2022/05/22 12:23:16;;;;;;;7.07;2.45;;;25.10;39.30;;;;;;5115547;27;20043;-69
2022/05/22 12:25:55;;;;;;;6.93;2.47;;;24.90;39.20;;;;;;5049472;28;20064;-67
2022/05/22 12:28:32;;;;;;;7.10;2.22;;;24.80;39.00;;;;;;5053309;28;20123;-67
2022/05/22 12:30:59;;;;;;;4.72;1.85;;;24.70;39.10;;;;;;5049991;28;20118;-66
2022/05/22 12:33:30;;;;;;;6.00;2.40;;;24.70;39.80;;;;;;5050047;28;20040;-66
2022/05/22 12:35:58;;;;;;;6.03;2.65;;;24.70;40.20;;;;;;5034928;28;20025;-67
2022/05/22 12:38:24;;;;;;;7.05;2.85;;;24.70;40.20;;;;;;5052389;28;20107;-66
2022/05/22 12:41:10;;;;;;;12.07;3.33;;;24.80;40.30;;;;;;5051295;28;20029;-66
2022/05/22 12:43:36;;;;;;;8.68;3.03;;;24.70;40.40;;;;;;5051000;28;20386;-66
2022/05/22 12:46:05;;;;;;;8.05;2.88;;;24.70;40.50;;;;;;5050104;28;20024;-66
2022/05/22 12:48:33;;;;;;;7.82;2.70;;;24.70;40.30;;;;;;5051264;28;20048;-66
2022/05/22 12:51:14;;;;;;;4.57;2.00;;;24.60;40.00;;;;;;5052152;28;20037;-65
2022/05/22 12:53:43;;;;;;;4.38;1.98;;;24.40;39.40;;;;;;5051442;28;20083;-66
2022/05/22 12:56:20;;;;;;;6.53;2.05;;;24.30;39.30;;;;;;5051995;28;20041;-66
2022/05/22 12:59:01;;;;;;;7.43;2.95;;;24.20;39.40;;;;;;5053240;28;20103;-66
2022/05/22 13:01:27;;;;;;;6.25;2.63;;;24.00;39.60;;;;;;5053303;28;20040;-66
2022/05/22 13:03:57;;;;;;;6.93;2.40;;;24.00;40.80;;;;;;5135806;28;20035;-66
2022/05/22 13:06:34;;;;;;;7.03;2.28;;;23.90;40.50;;;;;;5136302;27;20035;-66
2022/05/22 13:09:06;;;;;;;7.22;2.55;;;23.90;40.60;;;;;;5118521;28;20088;-66
2022/05/22 13:11:44;;;;;;;6.20;2.47;;;23.80;40.70;;;;;;5112788;28;20043;-66
2022/05/22 13:14:21;;;;;;;6.10;2.67;;;23.80;41.10;;;;;;5115589;28;20097;-66
2022/05/22 13:16:49;;;;;;;7.32;2.70;;;23.80;41.60;;;;;;5115311;28;20365;-66
2022/05/22 13:19:26;;;;;;;6.93;2.85;;;23.90;41.40;;;;;;5115138;28;20027;-66
2022/05/22 13:21:53;;;;;;;8.23;2.65;;;23.80;41.40;;;;;;5115424;28;20031;-66
2022/05/22 13:24:24;;;;;;;7.88;2.60;;;23.70;41.60;;;;;;5114818;28;20019;-66
2022/05/22 13:26:59;;;;;;;7.22;2.80;;;23.70;41.60;;;;;;5114554;28;20325;-66
2022/05/22 13:29:28;;;;;;;6.70;2.78;;;23.60;41.50;;;;;;5115171;28;20088;-66
2022/05/22 13:31:57;;;;;;;6.68;2.50;;;23.60;41.80;;;;;;5114918;28;20429;-67
2022/05/22 13:34:28;;;;;;;7.65;2.90;;;23.50;41.60;;;;;;5114649;28;20468;-66
2022/05/22 13:36:56;;;;;;;;;;;23.50;41.70;;;;;;5115429;28;20028;-66
2022/05/22 13:39:40;;;;;;;8.07;2.60;;;23.40;41.90;;;;;;5114562;28;19915;-66
2022/05/22 13:42:24;;;;;;;6.25;2.25;;;23.30;42.00;;;;;;5114290;28;20035;-66
2022/05/22 13:45:09;;;;;;;7.65;2.47;;;23.30;42.20;;;;;;5114209;28;20039;-67